sensor_id;sensor_type;location;lat;lon;timestamp;P1;durP1;ratioP1;P2;durP2;ratioP2
3993;SDS011;2011;48.238;13.948;2023-07-13T00:01:46;30.63;;;7.80;;
3993;SDS011;2011;48.238;13.948;2023-07-13T00:04:15;25.00;;;7.30;;
3993;SDS011;2011;48.238;13.948;2023-07-13T00:06:43;17.30;;;5.83;;
3993;SDS011;2011;48.238;13.948;2023-07-13T00:09:11;23.00;;;6.37;;
3993;SDS011;2011;48.238;13.948;2023-07-13T00:11:38;26.67;;;7.43;;
3993;SDS011;2011;48.238;13.948;2023-07-13T00:14:06;37.63;;;7.27;;
3993;SDS011;2011;48.238;13.948;2023-07-13T00:16:34;31.03;;;6.80;;
3993;SDS011;2011;48.238;13.948;2023-07-13T00:19:03;22.43;;;7.10;;
3993;SDS011;2011;48.238;13.948;2023-07-13T00:21:30;32.90;;;7.20;;
3993;SDS011;2011;48.238;13.948;2023-07-13T00:23:57;27.37;;;6.33;;
3993;SDS011;2011;48.238;13.948;2023-07-13T00:26:24;30.30;;;6.20;;
3993;SDS011;2011;48.238;13.948;2023-07-13T00:28:52;20.03;;;5.90;;
3993;SDS011;2011;48.238;13.948;2023-07-13T00:31:19;24.27;;;6.60;;
3993;SDS011;2011;48.238;13.948;2023-07-13T00:33:46;24.90;;;6.20;;
3993;SDS011;2011;48.238;13.948;2023-07-13T00:36:14;28.27;;;7.30;;
3993;SDS011;2011;48.238;13.948;2023-07-13T00:38:42;19.23;;;6.47;;
3993;SDS011;2011;48.238;13.948;2023-07-13T00:41:09;17.63;;;6.23;;
3993;SDS011;2011;48.238;13.948;2023-07-13T00:43:37;25.43;;;6.60;;
3993;SDS011;2011;48.238;13.948;2023-07-13T00:46:21;26.53;;;6.50;;
3993;SDS011;2011;48.238;13.948;2023-07-13T00:48:50;23.20;;;6.57;;
3993;SDS011;2011;48.238;13.948;2023-07-13T00:51:22;16.80;;;5.00;;
3993;SDS011;2011;48.238;13.948;2023-07-13T00:53:54;24.03;;;6.07;;
3993;SDS011;2011;48.238;13.948;2023-07-13T00:56:25;15.23;;;5.63;;
3993;SDS011;2011;48.238;13.948;2023-07-13T00:58:53;15.90;;;5.13;;
3993;SDS011;2011;48.238;13.948;2023-07-13T01:01:21;20.77;;;5.53;;
3993;SDS011;2011;48.238;13.948;2023-07-13T01:03:48;22.63;;;5.00;;
3993;SDS011;2011;48.238;13.948;2023-07-13T01:06:15;15.27;;;4.50;;
3993;SDS011;2011;48.238;13.948;2023-07-13T01:08:45;12.13;;;4.23;;
3993;SDS011;2011;48.238;13.948;2023-07-13T01:11:16;12.00;;;4.27;;
3993;SDS011;2011;48.238;13.948;2023-07-13T01:13:45;16.87;;;4.77;;
3993;SDS011;2011;48.238;13.948;2023-07-13T01:16:24;14.10;;;4.13;;
3993;SDS011;2011;48.238;13.948;2023-07-13T01:18:52;13.23;;;3.90;;
3993;SDS011;2011;48.238;13.948;2023-07-13T01:21:24;13.80;;;4.33;;
3993;SDS011;2011;48.238;13.948;2023-07-13T01:23:52;13.43;;;4.73;;
3993;SDS011;2011;48.238;13.948;2023-07-13T01:26:19;20.67;;;6.30;;
3993;SDS011;2011;48.238;13.948;2023-07-13T01:28:46;22.10;;;5.93;;
3993;SDS011;2011;48.238;13.948;2023-07-13T01:31:13;13.80;;;6.10;;
3993;SDS011;2011;48.238;13.948;2023-07-13T01:33:40;13.73;;;5.67;;
3993;SDS011;2011;48.238;13.948;2023-07-13T01:36:08;10.90;;;4.77;;
3993;SDS011;2011;48.238;13.948;2023-07-13T01:38:38;20.30;;;6.23;;
3993;SDS011;2011;48.238;13.948;2023-07-13T01:41:04;11.90;;;5.13;;
3993;SDS011;2011;48.238;13.948;2023-07-13T01:43:32;12.30;;;5.63;;
3993;SDS011;2011;48.238;13.948;2023-07-13T01:45:59;18.83;;;4.80;;
3993;SDS011;2011;48.238;13.948;2023-07-13T01:48:26;8.53;;;4.30;;
3993;SDS011;2011;48.238;13.948;2023-07-13T01:50:53;23.43;;;5.90;;
3993;SDS011;2011;48.238;13.948;2023-07-13T01:53:20;15.30;;;4.97;;
3993;SDS011;2011;48.238;13.948;2023-07-13T01:55:49;20.83;;;6.37;;
3993;SDS011;2011;48.238;13.948;2023-07-13T01:58:16;22.43;;;5.47;;
3993;SDS011;2011;48.238;13.948;2023-07-13T02:00:43;10.27;;;5.93;;
3993;SDS011;2011;48.238;13.948;2023-07-13T02:03:10;22.13;;;5.97;;
3993;SDS011;2011;48.238;13.948;2023-07-13T02:05:37;14.63;;;5.33;;
3993;SDS011;2011;48.238;13.948;2023-07-13T02:08:04;16.73;;;5.80;;
3993;SDS011;2011;48.238;13.948;2023-07-13T02:10:31;18.60;;;4.90;;
3993;SDS011;2011;48.238;13.948;2023-07-13T02:12:59;14.60;;;4.60;;
3993;SDS011;2011;48.238;13.948;2023-07-13T02:15:26;10.13;;;5.50;;
3993;SDS011;2011;48.238;13.948;2023-07-13T02:17:53;10.10;;;4.40;;
3993;SDS011;2011;48.238;13.948;2023-07-13T02:20:20;17.97;;;6.10;;
3993;SDS011;2011;48.238;13.948;2023-07-13T02:22:47;23.67;;;5.90;;
3993;SDS011;2011;48.238;13.948;2023-07-13T02:25:14;20.57;;;5.80;;
3993;SDS011;2011;48.238;13.948;2023-07-13T02:27:41;15.87;;;5.33;;
3993;SDS011;2011;48.238;13.948;2023-07-13T02:30:10;16.20;;;5.80;;
3993;SDS011;2011;48.238;13.948;2023-07-13T02:32:37;15.23;;;5.13;;
3993;SDS011;2011;48.238;13.948;2023-07-13T02:35:05;16.20;;;6.67;;
3993;SDS011;2011;48.238;13.948;2023-07-13T02:37:32;13.13;;;5.50;;
3993;SDS011;2011;48.238;13.948;2023-07-13T02:39:59;15.47;;;5.67;;
3993;SDS011;2011;48.238;13.948;2023-07-13T02:42:28;13.90;;;6.17;;
3993;SDS011;2011;48.238;13.948;2023-07-13T02:44:55;11.93;;;5.17;;
3993;SDS011;2011;48.238;13.948;2023-07-13T02:47:23;9.80;;;5.10;;
3993;SDS011;2011;48.238;13.948;2023-07-13T02:49:51;27.70;;;6.50;;
3993;SDS011;2011;48.238;13.948;2023-07-13T02:52:19;14.57;;;6.00;;
3993;SDS011;2011;48.238;13.948;2023-07-13T02:54:46;20.57;;;5.90;;
3993;SDS011;2011;48.238;13.948;2023-07-13T02:57:13;23.80;;;5.17;;
3993;SDS011;2011;48.238;13.948;2023-07-13T02:59:40;18.33;;;5.00;;
3993;SDS011;2011;48.238;13.948;2023-07-13T03:02:07;22.03;;;5.50;;
3993;SDS011;2011;48.238;13.948;2023-07-13T03:04:36;11.63;;;4.67;;
3993;SDS011;2011;48.238;13.948;2023-07-13T03:07:04;12.40;;;5.83;;
3993;SDS011;2011;48.238;13.948;2023-07-13T03:09:32;21.70;;;5.87;;
3993;SDS011;2011;48.238;13.948;2023-07-13T03:12:00;16.40;;;6.10;;
3993;SDS011;2011;48.238;13.948;2023-07-13T03:14:27;15.40;;;5.93;;
3993;SDS011;2011;48.238;13.948;2023-07-13T03:16:55;21.23;;;7.23;;
3993;SDS011;2011;48.238;13.948;2023-07-13T03:19:22;12.27;;;6.50;;
3993;SDS011;2011;48.238;13.948;2023-07-13T03:21:50;13.80;;;5.70;;
3993;SDS011;2011;48.238;13.948;2023-07-13T03:24:18;16.33;;;6.03;;
3993;SDS011;2011;48.238;13.948;2023-07-13T03:26:45;18.33;;;6.40;;
3993;SDS011;2011;48.238;13.948;2023-07-13T03:29:12;21.07;;;6.30;;
3993;SDS011;2011;48.238;13.948;2023-07-13T03:31:39;14.73;;;5.50;;
3993;SDS011;2011;48.238;13.948;2023-07-13T03:34:06;18.00;;;6.43;;
3993;SDS011;2011;48.238;13.948;2023-07-13T03:36:33;10.50;;;5.60;;
3993;SDS011;2011;48.238;13.948;2023-07-13T03:39:02;18.57;;;5.57;;
3993;SDS011;2011;48.238;13.948;2023-07-13T03:41:33;13.40;;;5.90;;
3993;SDS011;2011;48.238;13.948;2023-07-13T03:44:00;17.97;;;6.70;;
3993;SDS011;2011;48.238;13.948;2023-07-13T03:46:27;13.43;;;6.27;;
3993;SDS011;2011;48.238;13.948;2023-07-13T03:48:55;17.07;;;5.70;;
3993;SDS011;2011;48.238;13.948;2023-07-13T03:51:22;18.83;;;6.80;;
3993;SDS011;2011;48.238;13.948;2023-07-13T03:53:49;12.80;;;6.13;;
3993;SDS011;2011;48.238;13.948;2023-07-13T03:56:18;18.07;;;6.33;;
3993;SDS011;2011;48.238;13.948;2023-07-13T03:58:46;17.13;;;6.00;;
3993;SDS011;2011;48.238;13.948;2023-07-13T04:01:15;21.90;;;6.00;;
3993;SDS011;2011;48.238;13.948;2023-07-13T04:03:43;17.80;;;5.80;;
3993;SDS011;2011;48.238;13.948;2023-07-13T04:06:14;24.00;;;7.03;;
3993;SDS011;2011;48.238;13.948;2023-07-13T04:08:47;13.10;;;5.80;;
3993;SDS011;2011;48.238;13.948;2023-07-13T04:11:17;18.07;;;5.97;;
3993;SDS011;2011;48.238;13.948;2023-07-13T04:13:45;19.33;;;6.03;;
3993;SDS011;2011;48.238;13.948;2023-07-13T04:16:12;15.97;;;6.00;;
3993;SDS011;2011;48.238;13.948;2023-07-13T04:18:40;14.50;;;5.80;;
3993;SDS011;2011;48.238;13.948;2023-07-13T04:21:08;16.60;;;7.03;;
3993;SDS011;2011;48.238;13.948;2023-07-13T04:23:36;17.43;;;6.67;;
3993;SDS011;2011;48.238;13.948;2023-07-13T04:26:03;12.23;;;5.70;;
3993;SDS011;2011;48.238;13.948;2023-07-13T04:28:31;18.33;;;6.73;;
3993;SDS011;2011;48.238;13.948;2023-07-13T04:30:58;27.40;;;7.50;;
3993;SDS011;2011;48.238;13.948;2023-07-13T04:33:26;10.83;;;6.60;;
3993;SDS011;2011;48.238;13.948;2023-07-13T04:35:54;18.00;;;6.23;;
3993;SDS011;2011;48.238;13.948;2023-07-13T04:38:22;16.53;;;7.00;;
3993;SDS011;2011;48.238;13.948;2023-07-13T04:40:52;20.93;;;6.63;;
3993;SDS011;2011;48.238;13.948;2023-07-13T04:43:21;11.10;;;5.97;;
3993;SDS011;2011;48.238;13.948;2023-07-13T04:45:49;13.53;;;6.27;;
3993;SDS011;2011;48.238;13.948;2023-07-13T04:48:16;14.97;;;5.70;;
3993;SDS011;2011;48.238;13.948;2023-07-13T04:50:43;12.10;;;5.97;;
3993;SDS011;2011;48.238;13.948;2023-07-13T04:53:11;21.97;;;6.60;;
3993;SDS011;2011;48.238;13.948;2023-07-13T04:55:38;11.50;;;4.90;;
3993;SDS011;2011;48.238;13.948;2023-07-13T04:58:06;14.37;;;6.17;;
3993;SDS011;2011;48.238;13.948;2023-07-13T05:00:33;13.37;;;6.50;;
3993;SDS011;2011;48.238;13.948;2023-07-13T05:03:02;13.80;;;5.17;;
3993;SDS011;2011;48.238;13.948;2023-07-13T05:05:29;16.20;;;7.00;;
3993;SDS011;2011;48.238;13.948;2023-07-13T05:07:56;24.07;;;7.10;;
3993;SDS011;2011;48.238;13.948;2023-07-13T05:10:23;17.70;;;7.13;;
3993;SDS011;2011;48.238;13.948;2023-07-13T05:12:50;20.80;;;7.60;;
3993;SDS011;2011;48.238;13.948;2023-07-13T05:15:17;16.93;;;8.03;;
3993;SDS011;2011;48.238;13.948;2023-07-13T05:17:47;16.50;;;8.13;;
3993;SDS011;2011;48.238;13.948;2023-07-13T05:20:16;24.33;;;7.50;;
3993;SDS011;2011;48.238;13.948;2023-07-13T05:22:45;13.30;;;7.20;;
3993;SDS011;2011;48.238;13.948;2023-07-13T05:25:13;15.13;;;8.10;;
3993;SDS011;2011;48.238;13.948;2023-07-13T05:27:40;14.70;;;8.30;;
3993;SDS011;2011;48.238;13.948;2023-07-13T05:30:07;19.23;;;8.37;;
3993;SDS011;2011;48.238;13.948;2023-07-13T05:32:36;26.33;;;8.27;;
3993;SDS011;2011;48.238;13.948;2023-07-13T05:35:03;20.73;;;7.70;;
3993;SDS011;2011;48.238;13.948;2023-07-13T05:37:31;14.83;;;7.83;;
3993;SDS011;2011;48.238;13.948;2023-07-13T05:39:58;10.83;;;6.70;;
3993;SDS011;2011;48.238;13.948;2023-07-13T05:42:25;12.87;;;7.50;;
3993;SDS011;2011;48.238;13.948;2023-07-13T05:44:52;14.80;;;7.27;;
3993;SDS011;2011;48.238;13.948;2023-07-13T05:47:19;15.40;;;7.47;;
3993;SDS011;2011;48.238;13.948;2023-07-13T05:49:46;11.70;;;7.30;;
3993;SDS011;2011;48.238;13.948;2023-07-13T05:52:13;14.97;;;7.40;;
3993;SDS011;2011;48.238;13.948;2023-07-13T05:54:41;22.63;;;7.57;;
3993;SDS011;2011;48.238;13.948;2023-07-13T05:57:08;17.73;;;6.80;;
3993;SDS011;2011;48.238;13.948;2023-07-13T05:59:35;19.60;;;7.17;;
3993;SDS011;2011;48.238;13.948;2023-07-13T06:02:03;14.37;;;6.67;;
3993;SDS011;2011;48.238;13.948;2023-07-13T06:04:30;16.07;;;5.90;;
3993;SDS011;2011;48.238;13.948;2023-07-13T06:06:57;22.60;;;6.43;;
3993;SDS011;2011;48.238;13.948;2023-07-13T06:09:25;16.93;;;5.90;;
3993;SDS011;2011;48.238;13.948;2023-07-13T06:11:53;7.40;;;4.10;;
3993;SDS011;2011;48.238;13.948;2023-07-13T06:14:20;11.63;;;3.70;;
3993;SDS011;2011;48.238;13.948;2023-07-13T06:16:47;9.27;;;4.30;;
3993;SDS011;2011;48.238;13.948;2023-07-13T06:19:14;8.47;;;3.97;;
3993;SDS011;2011;48.238;13.948;2023-07-13T06:21:41;11.57;;;5.23;;
3993;SDS011;2011;48.238;13.948;2023-07-13T06:24:08;13.37;;;6.07;;
3993;SDS011;2011;48.238;13.948;2023-07-13T06:26:35;17.73;;;6.30;;
3993;SDS011;2011;48.238;13.948;2023-07-13T06:29:03;16.17;;;4.10;;
3993;SDS011;2011;48.238;13.948;2023-07-13T06:31:30;10.93;;;3.60;;
3993;SDS011;2011;48.238;13.948;2023-07-13T06:33:58;10.07;;;4.17;;
3993;SDS011;2011;48.238;13.948;2023-07-13T06:36:25;12.20;;;4.00;;
3993;SDS011;2011;48.238;13.948;2023-07-13T06:38:52;10.97;;;4.60;;
3993;SDS011;2011;48.238;13.948;2023-07-13T06:41:19;10.53;;;3.70;;
3993;SDS011;2011;48.238;13.948;2023-07-13T06:43:47;9.17;;;3.87;;
3993;SDS011;2011;48.238;13.948;2023-07-13T06:46:15;9.57;;;4.10;;
3993;SDS011;2011;48.238;13.948;2023-07-13T06:48:42;6.90;;;3.67;;
3993;SDS011;2011;48.238;13.948;2023-07-13T06:51:09;11.33;;;3.50;;
3993;SDS011;2011;48.238;13.948;2023-07-13T06:53:36;9.40;;;3.70;;
3993;SDS011;2011;48.238;13.948;2023-07-13T06:56:03;7.80;;;3.87;;
3993;SDS011;2011;48.238;13.948;2023-07-13T06:58:30;7.73;;;3.90;;
3993;SDS011;2011;48.238;13.948;2023-07-13T07:00:57;13.80;;;3.90;;
3993;SDS011;2011;48.238;13.948;2023-07-13T07:03:25;12.30;;;4.77;;
3993;SDS011;2011;48.238;13.948;2023-07-13T07:05:52;10.17;;;4.87;;
3993;SDS011;2011;48.238;13.948;2023-07-13T07:08:19;14.23;;;4.00;;
3993;SDS011;2011;48.238;13.948;2023-07-13T07:10:46;13.00;;;4.27;;
3993;SDS011;2011;48.238;13.948;2023-07-13T07:13:16;10.20;;;3.47;;
3993;SDS011;2011;48.238;13.948;2023-07-13T07:15:43;7.47;;;3.53;;
3993;SDS011;2011;48.238;13.948;2023-07-13T07:18:10;10.50;;;3.90;;
3993;SDS011;2011;48.238;13.948;2023-07-13T07:20:39;9.90;;;4.03;;
3993;SDS011;2011;48.238;13.948;2023-07-13T07:23:05;8.43;;;3.80;;
3993;SDS011;2011;48.238;13.948;2023-07-13T07:25:32;9.63;;;4.37;;
3993;SDS011;2011;48.238;13.948;2023-07-13T07:28:02;13.77;;;4.00;;
3993;SDS011;2011;48.238;13.948;2023-07-13T07:30:29;12.10;;;4.20;;
3993;SDS011;2011;48.238;13.948;2023-07-13T07:32:56;9.90;;;3.77;;
3993;SDS011;2011;48.238;13.948;2023-07-13T07:35:23;18.30;;;4.70;;
3993;SDS011;2011;48.238;13.948;2023-07-13T07:37:51;9.80;;;4.37;;
3993;SDS011;2011;48.238;13.948;2023-07-13T07:40:18;11.07;;;4.33;;
3993;SDS011;2011;48.238;13.948;2023-07-13T07:42:45;9.77;;;3.87;;
3993;SDS011;2011;48.238;13.948;2023-07-13T07:45:12;10.40;;;3.93;;
3993;SDS011;2011;48.238;13.948;2023-07-13T07:47:40;13.13;;;4.33;;
3993;SDS011;2011;48.238;13.948;2023-07-13T07:50:07;9.63;;;3.93;;
3993;SDS011;2011;48.238;13.948;2023-07-13T07:52:34;7.77;;;3.97;;
3993;SDS011;2011;48.238;13.948;2023-07-13T07:55:03;15.37;;;4.57;;
3993;SDS011;2011;48.238;13.948;2023-07-13T07:57:31;9.47;;;4.00;;
3993;SDS011;2011;48.238;13.948;2023-07-13T07:59:58;7.57;;;4.20;;
3993;SDS011;2011;48.238;13.948;2023-07-13T08:02:25;9.67;;;3.80;;
3993;SDS011;2011;48.238;13.948;2023-07-13T08:04:52;7.77;;;4.37;;
3993;SDS011;2011;48.238;13.948;2023-07-13T08:07:19;8.20;;;4.07;;
3993;SDS011;2011;48.238;13.948;2023-07-13T08:09:46;12.60;;;4.40;;
3993;SDS011;2011;48.238;13.948;2023-07-13T08:12:14;10.33;;;4.33;;
3993;SDS011;2011;48.238;13.948;2023-07-13T08:14:41;12.20;;;3.70;;
3993;SDS011;2011;48.238;13.948;2023-07-13T08:17:08;10.93;;;3.80;;
3993;SDS011;2011;48.238;13.948;2023-07-13T08:19:34;8.20;;;4.10;;
3993;SDS011;2011;48.238;13.948;2023-07-13T08:22:01;8.30;;;3.90;;
3993;SDS011;2011;48.238;13.948;2023-07-13T08:24:28;11.33;;;4.13;;
3993;SDS011;2011;48.238;13.948;2023-07-13T08:26:55;12.97;;;4.07;;
3993;SDS011;2011;48.238;13.948;2023-07-13T08:29:23;12.73;;;3.97;;
3993;SDS011;2011;48.238;13.948;2023-07-13T08:31:50;7.70;;;3.97;;
3993;SDS011;2011;48.238;13.948;2023-07-13T08:34:17;10.87;;;4.17;;
3993;SDS011;2011;48.238;13.948;2023-07-13T08:36:44;13.13;;;4.63;;
3993;SDS011;2011;48.238;13.948;2023-07-13T08:39:11;9.70;;;3.67;;
3993;SDS011;2011;48.238;13.948;2023-07-13T08:41:38;11.70;;;4.73;;
3993;SDS011;2011;48.238;13.948;2023-07-13T08:44:06;12.10;;;4.00;;
3993;SDS011;2011;48.238;13.948;2023-07-13T08:46:45;13.53;;;4.50;;
3993;SDS011;2011;48.238;13.948;2023-07-13T08:49:14;14.70;;;4.90;;
3993;SDS011;2011;48.238;13.948;2023-07-13T08:51:44;7.40;;;3.93;;
3993;SDS011;2011;48.238;13.948;2023-07-13T08:54:19;8.10;;;3.50;;
3993;SDS011;2011;48.238;13.948;2023-07-13T08:56:49;18.13;;;3.80;;
3993;SDS011;2011;48.238;13.948;2023-07-13T08:59:19;12.27;;;3.77;;
3993;SDS011;2011;48.238;13.948;2023-07-13T09:01:57;9.10;;;4.57;;
3993;SDS011;2011;48.238;13.948;2023-07-13T09:04:35;9.53;;;4.70;;
3993;SDS011;2011;48.238;13.948;2023-07-13T09:07:09;15.43;;;4.50;;
3993;SDS011;2011;48.238;13.948;2023-07-13T09:09:46;13.67;;;4.00;;
3993;SDS011;2011;48.238;13.948;2023-07-13T09:12:22;9.70;;;4.50;;
3993;SDS011;2011;48.238;13.948;2023-07-13T09:14:57;10.60;;;4.30;;
3993;SDS011;2011;48.238;13.948;2023-07-13T09:17:28;15.67;;;4.30;;
3993;SDS011;2011;48.238;13.948;2023-07-13T09:19:58;9.47;;;3.77;;
3993;SDS011;2011;48.238;13.948;2023-07-13T09:22:29;10.27;;;3.90;;
3993;SDS011;2011;48.238;13.948;2023-07-13T09:25:02;17.90;;;4.07;;
3993;SDS011;2011;48.238;13.948;2023-07-13T09:27:39;14.50;;;4.00;;
3993;SDS011;2011;48.238;13.948;2023-07-13T09:30:20;10.27;;;3.63;;
3993;SDS011;2011;48.238;13.948;2023-07-13T09:32:52;10.50;;;4.17;;
3993;SDS011;2011;48.238;13.948;2023-07-13T09:35:20;9.57;;;4.43;;
3993;SDS011;2011;48.238;13.948;2023-07-13T09:37:56;16.60;;;3.80;;
3993;SDS011;2011;48.238;13.948;2023-07-13T09:40:34;10.20;;;4.20;;
3993;SDS011;2011;48.238;13.948;2023-07-13T09:43:07;7.53;;;3.80;;
3993;SDS011;2011;48.238;13.948;2023-07-13T09:45:39;10.20;;;3.53;;
3993;SDS011;2011;48.238;13.948;2023-07-13T09:48:10;12.40;;;3.70;;
3993;SDS011;2011;48.238;13.948;2023-07-13T09:50:39;11.73;;;3.90;;
3993;SDS011;2011;48.238;13.948;2023-07-13T09:53:11;13.57;;;4.33;;
3993;SDS011;2011;48.238;13.948;2023-07-13T09:55:39;10.47;;;3.70;;
3993;SDS011;2011;48.238;13.948;2023-07-13T09:58:09;9.10;;;3.80;;
3993;SDS011;2011;48.238;13.948;2023-07-13T10:00:38;17.63;;;4.00;;
3993;SDS011;2011;48.238;13.948;2023-07-13T10:03:16;12.70;;;3.37;;
3993;SDS011;2011;48.238;13.948;2023-07-13T10:05:46;13.53;;;3.67;;
3993;SDS011;2011;48.238;13.948;2023-07-13T10:08:16;9.40;;;3.37;;
3993;SDS011;2011;48.238;13.948;2023-07-13T10:10:46;9.27;;;4.10;;
3993;SDS011;2011;48.238;13.948;2023-07-13T10:13:24;10.90;;;4.03;;
3993;SDS011;2011;48.238;13.948;2023-07-13T10:15:57;12.27;;;3.90;;
3993;SDS011;2011;48.238;13.948;2023-07-13T10:18:27;11.77;;;3.50;;
3993;SDS011;2011;48.238;13.948;2023-07-13T10:21:08;12.13;;;4.37;;
3993;SDS011;2011;48.238;13.948;2023-07-13T10:23:38;9.33;;;3.30;;
3993;SDS011;2011;48.238;13.948;2023-07-13T10:26:08;32.43;;;3.40;;
3993;SDS011;2011;48.238;13.948;2023-07-13T10:28:41;7.07;;;3.20;;
3993;SDS011;2011;48.238;13.948;2023-07-13T10:31:10;6.27;;;2.67;;
3993;SDS011;2011;48.238;13.948;2023-07-13T10:33:41;9.03;;;3.00;;
3993;SDS011;2011;48.238;13.948;2023-07-13T10:36:12;10.43;;;2.90;;
3993;SDS011;2011;48.238;13.948;2023-07-13T10:38:43;9.23;;;3.10;;
3993;SDS011;2011;48.238;13.948;2023-07-13T10:41:14;13.20;;;2.97;;
3993;SDS011;2011;48.238;13.948;2023-07-13T10:43:45;15.43;;;3.50;;
3993;SDS011;2011;48.238;13.948;2023-07-13T10:46:15;7.67;;;3.23;;
3993;SDS011;2011;48.238;13.948;2023-07-13T10:48:46;9.47;;;3.67;;
3993;SDS011;2011;48.238;13.948;2023-07-13T10:51:17;9.70;;;2.93;;
3993;SDS011;2011;48.238;13.948;2023-07-13T10:53:47;9.10;;;2.70;;
3993;SDS011;2011;48.238;13.948;2023-07-13T10:56:34;6.77;;;2.67;;
3993;SDS011;2011;48.238;13.948;2023-07-13T10:59:01;10.73;;;3.10;;
3993;SDS011;2011;48.238;13.948;2023-07-13T11:01:40;9.13;;;2.90;;
3993;SDS011;2011;48.238;13.948;2023-07-13T11:04:16;6.43;;;2.50;;
3993;SDS011;2011;48.238;13.948;2023-07-13T11:06:46;8.13;;;2.53;;
3993;SDS011;2011;48.238;13.948;2023-07-13T11:09:30;14.47;;;2.70;;
3993;SDS011;2011;48.238;13.948;2023-07-13T11:11:59;13.30;;;2.73;;
3993;SDS011;2011;48.238;13.948;2023-07-13T11:14:29;6.37;;;2.50;;
3993;SDS011;2011;48.238;13.948;2023-07-13T11:17:00;7.57;;;2.60;;
3993;SDS011;2011;48.238;13.948;2023-07-13T11:19:53;7.37;;;2.90;;
3993;SDS011;2011;48.238;13.948;2023-07-13T11:22:41;10.47;;;3.07;;
3993;SDS011;2011;48.238;13.948;2023-07-13T11:25:25;6.90;;;2.80;;
3993;SDS011;2011;48.238;13.948;2023-07-13T11:28:14;7.93;;;2.90;;
3993;SDS011;2011;48.238;13.948;2023-07-13T11:30:44;12.23;;;3.10;;
3993;SDS011;2011;48.238;13.948;2023-07-13T11:33:15;7.93;;;3.10;;
3993;SDS011;2011;48.238;13.948;2023-07-13T11:35:47;5.90;;;2.70;;
3993;SDS011;2011;48.238;13.948;2023-07-13T11:38:28;7.17;;;3.17;;
3993;SDS011;2011;48.238;13.948;2023-07-13T11:40:58;10.30;;;2.77;;
3993;SDS011;2011;48.238;13.948;2023-07-13T11:43:29;10.63;;;3.00;;
3993;SDS011;2011;48.238;13.948;2023-07-13T11:45:58;18.37;;;3.10;;
3993;SDS011;2011;48.238;13.948;2023-07-13T11:48:37;17.83;;;2.87;;
3993;SDS011;2011;48.238;13.948;2023-07-13T11:51:06;11.83;;;3.07;;
3993;SDS011;2011;48.238;13.948;2023-07-13T11:53:40;13.13;;;2.70;;
3993;SDS011;2011;48.238;13.948;2023-07-13T11:56:11;10.87;;;2.47;;
3993;SDS011;2011;48.238;13.948;2023-07-13T11:58:39;7.03;;;2.80;;
3993;SDS011;2011;48.238;13.948;2023-07-13T12:01:06;10.07;;;2.70;;
3993;SDS011;2011;48.238;13.948;2023-07-13T12:03:43;8.57;;;2.57;;
3993;SDS011;2011;48.238;13.948;2023-07-13T12:06:19;5.60;;;2.40;;
3993;SDS011;2011;48.238;13.948;2023-07-13T12:08:51;6.87;;;2.50;;
3993;SDS011;2011;48.238;13.948;2023-07-13T12:11:18;7.27;;;2.50;;
3993;SDS011;2011;48.238;13.948;2023-07-13T12:13:46;10.40;;;2.73;;
3993;SDS011;2011;48.238;13.948;2023-07-13T12:16:14;10.77;;;2.70;;
3993;SDS011;2011;48.238;13.948;2023-07-13T12:18:43;39.23;;;8.33;;
3993;SDS011;2011;48.238;13.948;2023-07-13T12:21:13;23.60;;;4.50;;
3993;SDS011;2011;48.238;13.948;2023-07-13T12:23:44;8.40;;;2.20;;
3993;SDS011;2011;48.238;13.948;2023-07-13T12:26:15;5.10;;;2.07;;
3993;SDS011;2011;48.238;13.948;2023-07-13T12:28:44;9.10;;;2.30;;
3993;SDS011;2011;48.238;13.948;2023-07-13T12:31:24;10.63;;;2.30;;
3993;SDS011;2011;48.238;13.948;2023-07-13T12:34:07;5.97;;;2.20;;
3993;SDS011;2011;48.238;13.948;2023-07-13T12:36:35;8.20;;;2.27;;
3993;SDS011;2011;48.238;13.948;2023-07-13T12:39:11;7.47;;;2.20;;
3993;SDS011;2011;48.238;13.948;2023-07-13T12:41:40;7.83;;;2.30;;
3993;SDS011;2011;48.238;13.948;2023-07-13T12:44:10;6.03;;;2.10;;
3993;SDS011;2011;48.238;13.948;2023-07-13T12:46:39;6.80;;;2.10;;
3993;SDS011;2011;48.238;13.948;2023-07-13T12:49:06;8.03;;;2.30;;
3993;SDS011;2011;48.238;13.948;2023-07-13T12:51:33;6.73;;;2.13;;
3993;SDS011;2011;48.238;13.948;2023-07-13T12:54:11;9.30;;;2.20;;
3993;SDS011;2011;48.238;13.948;2023-07-13T12:56:42;9.63;;;2.67;;
3993;SDS011;2011;48.238;13.948;2023-07-13T12:59:13;7.67;;;2.80;;
3993;SDS011;2011;48.238;13.948;2023-07-13T13:01:43;14.10;;;2.90;;
3993;SDS011;2011;48.238;13.948;2023-07-13T13:04:10;7.70;;;2.60;;
3993;SDS011;2011;48.238;13.948;2023-07-13T13:06:38;6.30;;;2.50;;
3993;SDS011;2011;48.238;13.948;2023-07-13T13:09:09;12.33;;;3.00;;
3993;SDS011;2011;48.238;13.948;2023-07-13T13:11:39;12.03;;;2.83;;
3993;SDS011;2011;48.238;13.948;2023-07-13T13:14:06;11.17;;;2.60;;
3993;SDS011;2011;48.238;13.948;2023-07-13T13:16:34;10.80;;;3.10;;
3993;SDS011;2011;48.238;13.948;2023-07-13T13:19:05;7.80;;;2.40;;
3993;SDS011;2011;48.238;13.948;2023-07-13T13:21:40;16.20;;;3.30;;
3993;SDS011;2011;48.238;13.948;2023-07-13T13:24:11;7.40;;;3.00;;
3993;SDS011;2011;48.238;13.948;2023-07-13T13:26:40;12.43;;;3.00;;
3993;SDS011;2011;48.238;13.948;2023-07-13T13:29:11;11.40;;;3.47;;
3993;SDS011;2011;48.238;13.948;2023-07-13T13:31:40;16.17;;;3.10;;
3993;SDS011;2011;48.238;13.948;2023-07-13T13:34:08;9.27;;;3.37;;
3993;SDS011;2011;48.238;13.948;2023-07-13T13:36:36;6.87;;;2.60;;
3993;SDS011;2011;48.238;13.948;2023-07-13T13:39:05;8.03;;;2.77;;
3993;SDS011;2011;48.238;13.948;2023-07-13T13:41:44;11.90;;;3.27;;
3993;SDS011;2011;48.238;13.948;2023-07-13T13:44:10;9.63;;;2.70;;
3993;SDS011;2011;48.238;13.948;2023-07-13T13:46:39;9.63;;;2.20;;
3993;SDS011;2011;48.238;13.948;2023-07-13T13:49:08;9.17;;;2.60;;
3993;SDS011;2011;48.238;13.948;2023-07-13T13:51:38;10.13;;;2.20;;
3993;SDS011;2011;48.238;13.948;2023-07-13T13:54:08;6.67;;;2.40;;
3993;SDS011;2011;48.238;13.948;2023-07-13T13:56:37;6.53;;;2.23;;
3993;SDS011;2011;48.238;13.948;2023-07-13T13:59:05;11.40;;;2.40;;
3993;SDS011;2011;48.238;13.948;2023-07-13T14:01:33;10.60;;;2.50;;
3993;SDS011;2011;48.238;13.948;2023-07-13T14:04:01;13.43;;;2.60;;
3993;SDS011;2011;48.238;13.948;2023-07-13T14:06:28;8.17;;;2.67;;
3993;SDS011;2011;48.238;13.948;2023-07-13T14:08:55;7.13;;;2.40;;
3993;SDS011;2011;48.238;13.948;2023-07-13T14:11:22;8.50;;;2.20;;
3993;SDS011;2011;48.238;13.948;2023-07-13T14:13:49;6.63;;;2.03;;
3993;SDS011;2011;48.238;13.948;2023-07-13T14:16:21;5.13;;;1.80;;
3993;SDS011;2011;48.238;13.948;2023-07-13T14:18:52;8.27;;;2.73;;
3993;SDS011;2011;48.238;13.948;2023-07-13T14:21:21;6.80;;;2.03;;
3993;SDS011;2011;48.238;13.948;2023-07-13T14:23:49;6.40;;;1.80;;
3993;SDS011;2011;48.238;13.948;2023-07-13T14:26:17;8.10;;;2.00;;
3993;SDS011;2011;48.238;13.948;2023-07-13T14:28:47;4.87;;;1.90;;
3993;SDS011;2011;48.238;13.948;2023-07-13T14:31:15;8.13;;;2.30;;
3993;SDS011;2011;48.238;13.948;2023-07-13T14:33:45;6.07;;;2.30;;
3993;SDS011;2011;48.238;13.948;2023-07-13T14:36:16;7.10;;;1.70;;
3993;SDS011;2011;48.238;13.948;2023-07-13T14:38:50;5.37;;;1.67;;
3993;SDS011;2011;48.238;13.948;2023-07-13T14:41:17;5.13;;;1.50;;
3993;SDS011;2011;48.238;13.948;2023-07-13T14:43:44;5.90;;;2.00;;
3993;SDS011;2011;48.238;13.948;2023-07-13T14:46:12;4.60;;;1.80;;
3993;SDS011;2011;48.238;13.948;2023-07-13T14:48:52;7.40;;;1.93;;
3993;SDS011;2011;48.238;13.948;2023-07-13T14:51:19;5.13;;;1.90;;
3993;SDS011;2011;48.238;13.948;2023-07-13T14:53:46;6.17;;;1.90;;
3993;SDS011;2011;48.238;13.948;2023-07-13T14:56:13;4.80;;;1.80;;
3993;SDS011;2011;48.238;13.948;2023-07-13T14:58:42;4.40;;;1.60;;
3993;SDS011;2011;48.238;13.948;2023-07-13T15:01:10;5.73;;;1.90;;
3993;SDS011;2011;48.238;13.948;2023-07-13T15:03:40;11.00;;;1.90;;
3993;SDS011;2011;48.238;13.948;2023-07-13T15:06:12;6.10;;;1.97;;